sensor_id;sensor_type;location;lat;lon;timestamp;pressure;altitude;pressure_sealevel;temperature;humidity
43450;BME280;29041;42.266;23.110;2022-07-11T00:01:20;95785.72;;;23.38;45.36
43450;BME280;29041;42.266;23.110;2022-07-11T00:04:07;95784.63;;;23.70;44.68
43450;BME280;29041;42.266;23.110;2022-07-11T00:06:54;95781.69;;;23.50;45.07
43450;BME280;29041;42.266;23.110;2022-07-11T00:09:42;95789.53;;;22.95;46.34
43450;BME280;29041;42.266;23.110;2022-07-11T00:12:29;95787.22;;;22.94;46.12
43450;BME280;29041;42.266;23.110;2022-07-11T00:15:17;95785.75;;;23.35;45.29
43450;BME280;29041;42.266;23.110;2022-07-11T00:18:04;95790.19;;;23.18;45.69
43450;BME280;29041;42.266;23.110;2022-07-11T00:20:51;95796.63;;;23.42;44.86
43450;BME280;29041;42.266;23.110;2022-07-11T00:23:39;95790.72;;;22.94;45.79
43450;BME280;29041;42.266;23.110;2022-07-11T00:26:27;95779.38;;;23.49;44.30
43450;BME280;29041;42.266;23.110;2022-07-11T00:29:15;95791.44;;;23.06;45.52
43450;BME280;29041;42.266;23.110;2022-07-11T00:32:03;95783.63;;;23.50;44.35
43450;BME280;29041;42.266;23.110;2022-07-11T00:34:50;95784.94;;;23.38;44.73
43450;BME280;29041;42.266;23.110;2022-07-11T00:37:37;95771.06;;;23.10;45.26
43450;BME280;29041;42.266;23.110;2022-07-11T00:40:24;95775.19;;;23.75;43.65
43450;BME280;29041;42.266;23.110;2022-07-11T00:43:14;95766.16;;;24.13;43.54
43450;BME280;29041;42.266;23.110;2022-07-11T00:46:05;95776.03;;;23.68;44.52
43450;BME280;29041;42.266;23.110;2022-07-11T00:48:53;95768.75;;;24.54;42.30
43450;BME280;29041;42.266;23.110;2022-07-11T00:51:41;95778.22;;;24.50;42.11
43450;BME280;29041;42.266;23.110;2022-07-11T00:54:29;95781.09;;;24.70;41.81
43450;BME280;29041;42.266;23.110;2022-07-11T00:57:16;95774.84;;;24.07;42.62
43450;BME280;29041;42.266;23.110;2022-07-11T01:00:06;95784.59;;;24.12;42.64
43450;BME280;29041;42.266;23.110;2022-07-11T01:02:54;95778.84;;;23.61;43.44
43450;BME280;29041;42.266;23.110;2022-07-11T01:05:41;95794.34;;;23.79;43.59
43450;BME280;29041;42.266;23.110;2022-07-11T01:08:29;95782.56;;;24.16;42.81
43450;BME280;29041;42.266;23.110;2022-07-11T01:11:17;95789.75;;;25.19;40.43
43450;BME280;29041;42.266;23.110;2022-07-11T01:14:04;95785.81;;;24.69;41.32
43450;BME280;29041;42.266;23.110;2022-07-11T01:16:53;95788.06;;;24.16;42.69
43450;BME280;29041;42.266;23.110;2022-07-11T01:19:40;95788.63;;;24.35;42.23
43450;BME280;29041;42.266;23.110;2022-07-11T01:22:28;95798.00;;;24.03;43.19
43450;BME280;29041;42.266;23.110;2022-07-11T01:25:17;95788.66;;;24.90;41.18
43450;BME280;29041;42.266;23.110;2022-07-11T01:28:16;95778.75;;;25.47;39.84
43450;BME280;29041;42.266;23.110;2022-07-11T01:31:03;95789.56;;;24.83;40.88
43450;BME280;29041;42.266;23.110;2022-07-11T01:33:51;95793.22;;;24.11;42.27
43450;BME280;29041;42.266;23.110;2022-07-11T01:36:38;95801.84;;;23.71;43.97
43450;BME280;29041;42.266;23.110;2022-07-11T01:39:28;95814.94;;;23.90;42.69
43450;BME280;29041;42.266;23.110;2022-07-11T01:42:17;95812.66;;;24.23;42.96
43450;BME280;29041;42.266;23.110;2022-07-11T01:45:05;95811.34;;;23.10;45.25
43450;BME280;29041;42.266;23.110;2022-07-11T01:47:52;95815.75;;;22.93;45.05
43450;BME280;29041;42.266;23.110;2022-07-11T01:50:40;95819.25;;;23.01;45.58
43450;BME280;29041;42.266;23.110;2022-07-11T01:53:27;95812.31;;;24.18;42.88
43450;BME280;29041;42.266;23.110;2022-07-11T01:56:14;95811.75;;;22.45;46.88
43450;BME280;29041;42.266;23.110;2022-07-11T01:59:02;95818.03;;;23.02;46.09
43450;BME280;29041;42.266;23.110;2022-07-11T02:01:50;95823.25;;;22.85;45.95
43450;BME280;29041;42.266;23.110;2022-07-11T02:04:37;95814.22;;;22.92;45.76
43450;BME280;29041;42.266;23.110;2022-07-11T02:07:29;95828.22;;;23.01;45.69
43450;BME280;29041;42.266;23.110;2022-07-11T02:10:34;95819.66;;;23.48;44.66
43450;BME280;29041;42.266;23.110;2022-07-11T02:13:22;95815.31;;;23.96;43.19
43450;BME280;29041;42.266;23.110;2022-07-11T02:16:11;95833.13;;;23.28;45.74
43450;BME280;29041;42.266;23.110;2022-07-11T02:18:58;95836.13;;;22.88;46.13
43450;BME280;29041;42.266;23.110;2022-07-11T02:21:45;95831.81;;;22.91;46.74
43450;BME280;29041;42.266;23.110;2022-07-11T02:24:32;95842.16;;;23.28;45.79
43450;BME280;29041;42.266;23.110;2022-07-11T02:27:20;95839.88;;;22.42;47.78
43450;BME280;29041;42.266;23.110;2022-07-11T02:30:08;95853.81;;;22.73;47.03
43450;BME280;29041;42.266;23.110;2022-07-11T02:32:57;95859.84;;;23.13;46.24
43450;BME280;29041;42.266;23.110;2022-07-11T02:35:45;95853.13;;;22.54;48.03
43450;BME280;29041;42.266;23.110;2022-07-11T02:38:32;95858.88;;;22.78;47.18
43450;BME280;29041;42.266;23.110;2022-07-11T02:41:19;95864.28;;;22.89;46.45
43450;BME280;29041;42.266;23.110;2022-07-11T02:44:07;95855.00;;;22.68;46.85
43450;BME280;29041;42.266;23.110;2022-07-11T02:46:54;95862.03;;;22.69;46.89
43450;BME280;29041;42.266;23.110;2022-07-11T02:49:42;95860.41;;;22.82;46.42
43450;BME280;29041;42.266;23.110;2022-07-11T02:52:30;95868.81;;;22.39;47.40
43450;BME280;29041;42.266;23.110;2022-07-11T02:55:17;95871.53;;;22.35;47.13
43450;BME280;29041;42.266;23.110;2022-07-11T02:58:05;95871.41;;;22.72;45.87
43450;BME280;29041;42.266;23.110;2022-07-11T03:00:52;95863.28;;;22.50;45.83
43450;BME280;29041;42.266;23.110;2022-07-11T03:03:39;95870.13;;;21.44;48.46
43450;BME280;29041;42.266;23.110;2022-07-11T03:06:28;95861.88;;;21.98;47.21
43450;BME280;29041;42.266;23.110;2022-07-11T03:09:15;95868.44;;;22.41;46.25
43450;BME280;29041;42.266;23.110;2022-07-11T03:12:03;95866.88;;;22.32;45.98
43450;BME280;29041;42.266;23.110;2022-07-11T03:14:50;95865.44;;;21.74;46.92
43450;BME280;29041;42.266;23.110;2022-07-11T03:17:38;95876.72;;;21.18;48.82
43450;BME280;29041;42.266;23.110;2022-07-11T03:20:25;95870.50;;;21.75;47.25
43450;BME280;29041;42.266;23.110;2022-07-11T03:23:14;95880.63;;;21.49;47.87
43450;BME280;29041;42.266;23.110;2022-07-11T03:26:01;95874.03;;;21.68;47.47
43450;BME280;29041;42.266;23.110;2022-07-11T03:28:48;95878.22;;;22.24;46.01
43450;BME280;29041;42.266;23.110;2022-07-11T03:31:35;95886.03;;;22.40;45.45
43450;BME280;29041;42.266;23.110;2022-07-11T03:34:23;95891.91;;;22.09;46.52
43450;BME280;29041;42.266;23.110;2022-07-11T03:37:10;95885.25;;;22.25;46.43
43450;BME280;29041;42.266;23.110;2022-07-11T03:39:58;95873.09;;;23.71;42.68
43450;BME280;29041;42.266;23.110;2022-07-11T03:42:46;95881.41;;;23.60;42.74
43450;BME280;29041;42.266;23.110;2022-07-11T03:45:33;95886.16;;;22.96;43.91
43450;BME280;29041;42.266;23.110;2022-07-11T03:48:20;95884.81;;;22.37;45.52
43450;BME280;29041;42.266;23.110;2022-07-11T03:51:07;95885.25;;;23.13;43.80
43450;BME280;29041;42.266;23.110;2022-07-11T03:53:54;95891.72;;;22.78;44.81
43450;BME280;29041;42.266;23.110;2022-07-11T03:56:43;95893.53;;;23.03;44.68
43450;BME280;29041;42.266;23.110;2022-07-11T03:59:30;95901.72;;;23.06;44.43
43450;BME280;29041;42.266;23.110;2022-07-11T04:02:17;95899.69;;;23.74;42.47
43450;BME280;29041;42.266;23.110;2022-07-11T04:05:05;95899.53;;;23.92;41.97
43450;BME280;29041;42.266;23.110;2022-07-11T04:07:52;95903.31;;;24.47;40.78
43450;BME280;29041;42.266;23.110;2022-07-11T04:10:40;95918.06;;;24.22;41.11
43450;BME280;29041;42.266;23.110;2022-07-11T04:13:31;95923.19;;;23.75;42.36
43450;BME280;29041;42.266;23.110;2022-07-11T04:16:18;95921.25;;;23.72;42.57
43450;BME280;29041;42.266;23.110;2022-07-11T04:19:05;95928.09;;;23.45;43.10
43450;BME280;29041;42.266;23.110;2022-07-11T04:21:53;95923.19;;;21.90;46.60
43450;BME280;29041;42.266;23.110;2022-07-11T04:24:40;95922.56;;;23.53;43.28
43450;BME280;29041;42.266;23.110;2022-07-11T04:27:28;95929.00;;;23.28;43.94
43450;BME280;29041;42.266;23.110;2022-07-11T04:30:16;95917.31;;;23.20;44.15
43450;BME280;29041;42.266;23.110;2022-07-11T04:33:04;95928.81;;;22.86;44.78
43450;BME280;29041;42.266;23.110;2022-07-11T04:35:51;95929.25;;;24.01;42.26
43450;BME280;29041;42.266;23.110;2022-07-11T04:38:38;95926.00;;;23.68;43.43
43450;BME280;29041;42.266;23.110;2022-07-11T04:41:29;95935.97;;;23.40;44.05
43450;BME280;29041;42.266;23.110;2022-07-11T04:44:16;95935.38;;;23.07;44.77
43450;BME280;29041;42.266;23.110;2022-07-11T04:47:06;95931.44;;;24.17;42.67
43450;BME280;29041;42.266;23.110;2022-07-11T04:49:53;95936.88;;;24.59;42.05
43450;BME280;29041;42.266;23.110;2022-07-11T04:52:42;95925.91;;;24.20;42.62
43450;BME280;29041;42.266;23.110;2022-07-11T04:55:29;95931.25;;;23.97;42.97
43450;BME280;29041;42.266;23.110;2022-07-11T04:58:16;95931.34;;;24.62;42.44
43450;BME280;29041;42.266;23.110;2022-07-11T05:01:04;95934.06;;;23.86;43.32
43450;BME280;29041;42.266;23.110;2022-07-11T05:03:53;95931.75;;;24.61;42.64
43450;BME280;29041;42.266;23.110;2022-07-11T05:06:40;95932.31;;;24.83;41.47
43450;BME280;29041;42.266;23.110;2022-07-11T05:09:27;95937.78;;;24.10;43.74
43450;BME280;29041;42.266;23.110;2022-07-11T05:12:14;95945.34;;;23.95;44.10
43450;BME280;29041;42.266;23.110;2022-07-11T05:15:02;95930.81;;;25.09;41.75
43450;BME280;29041;42.266;23.110;2022-07-11T05:17:49;95941.44;;;24.73;42.23
43450;BME280;29041;42.266;23.110;2022-07-11T05:20:38;95938.75;;;24.69;42.89
43450;BME280;29041;42.266;23.110;2022-07-11T05:23:25;95941.28;;;25.18;41.18
43450;BME280;29041;42.266;23.110;2022-07-11T05:26:12;95929.00;;;25.54;41.25
43450;BME280;29041;42.266;23.110;2022-07-11T05:29:00;95934.72;;;25.35;41.13
43450;BME280;29041;42.266;23.110;2022-07-11T05:31:47;95920.81;;;25.50;40.38
43450;BME280;29041;42.266;23.110;2022-07-11T05:34:38;95922.47;;;25.44;40.38
43450;BME280;29041;42.266;23.110;2022-07-11T05:37:27;95939.19;;;26.04;39.63
43450;BME280;29041;42.266;23.110;2022-07-11T05:40:14;95940.72;;;25.58;39.89
43450;BME280;29041;42.266;23.110;2022-07-11T05:43:01;95941.38;;;25.65;40.01
43450;BME280;29041;42.266;23.110;2022-07-11T05:45:54;95936.13;;;25.98;38.12
43450;BME280;29041;42.266;23.110;2022-07-11T05:48:41;95940.13;;;25.94;38.11
43450;BME280;29041;42.266;23.110;2022-07-11T05:51:28;95940.25;;;25.87;37.76
43450;BME280;29041;42.266;23.110;2022-07-11T05:54:16;95934.47;;;26.49;35.70
43450;BME280;29041;42.266;23.110;2022-07-11T05:57:05;95940.94;;;27.19;35.78
43450;BME280;29041;42.266;23.110;2022-07-11T05:59:52;95942.88;;;27.02;35.42
43450;BME280;29041;42.266;23.110;2022-07-11T06:02:39;95947.63;;;27.01;35.44
43450;BME280;29041;42.266;23.110;2022-07-11T06:05:28;95950.09;;;26.96;35.12
43450;BME280;29041;42.266;23.110;2022-07-11T06:08:15;95950.81;;;25.88;36.65
43450;BME280;29041;42.266;23.110;2022-07-11T06:11:20;95939.50;;;26.74;36.01
43450;BME280;29041;42.266;23.110;2022-07-11T06:14:07;95942.66;;;27.49;34.77
43450;BME280;29041;42.266;23.110;2022-07-11T06:16:55;95955.00;;;27.61;34.02
43450;BME280;29041;42.266;23.110;2022-07-11T06:19:42;95947.66;;;27.54;33.40
43450;BME280;29041;42.266;23.110;2022-07-11T06:22:30;95955.50;;;27.19;34.00
43450;BME280;29041;42.266;23.110;2022-07-11T06:25:17;95949.34;;;28.60;31.72
43450;BME280;29041;42.266;23.110;2022-07-11T06:28:06;95950.41;;;27.54;32.05
43450;BME280;29041;42.266;23.110;2022-07-11T06:30:53;95949.31;;;27.32;32.13
43450;BME280;29041;42.266;23.110;2022-07-11T06:33:40;95943.53;;;27.63;31.49
43450;BME280;29041;42.266;23.110;2022-07-11T06:36:28;95939.56;;;27.27;31.98
43450;BME280;29041;42.266;23.110;2022-07-11T06:39:15;95947.56;;;28.08;31.33
43450;BME280;29041;42.266;23.110;2022-07-11T06:42:03;95928.63;;;27.77;31.61
43450;BME280;29041;42.266;23.110;2022-07-11T06:44:51;95933.81;;;28.67;30.59
43450;BME280;29041;42.266;23.110;2022-07-11T06:47:40;95943.63;;;27.92;30.79
43450;BME280;29041;42.266;23.110;2022-07-11T06:50:27;95951.19;;;27.88;30.39
43450;BME280;29041;42.266;23.110;2022-07-11T06:53:14;95931.22;;;28.89;28.71
43450;BME280;29041;42.266;23.110;2022-07-11T06:56:01;95931.88;;;28.50;28.93
43450;BME280;29041;42.266;23.110;2022-07-11T06:58:48;95940.53;;;28.36;29.42
43450;BME280;29041;42.266;23.110;2022-07-11T07:01:37;95932.75;;;28.77;29.30
43450;BME280;29041;42.266;23.110;2022-07-11T07:04:24;95933.94;;;27.51;30.75
43450;BME280;29041;42.266;23.110;2022-07-11T07:07:11;95923.94;;;28.95;28.67
43450;BME280;29041;42.266;23.110;2022-07-11T07:09:59;95923.97;;;28.07;30.14
43450;BME280;29041;42.266;23.110;2022-07-11T07:12:46;95927.50;;;27.58;30.92
43450;BME280;29041;42.266;23.110;2022-07-11T07:15:33;95938.13;;;27.39;31.66
43450;BME280;29041;42.266;23.110;2022-07-11T07:18:22;95937.25;;;28.41;30.61
43450;BME280;29041;42.266;23.110;2022-07-11T07:21:09;95931.97;;;28.17;29.87
43450;BME280;29041;42.266;23.110;2022-07-11T07:23:57;95927.50;;;28.07;31.77
43450;BME280;29041;42.266;23.110;2022-07-11T07:26:44;95930.38;;;28.62;29.23
43450;BME280;29041;42.266;23.110;2022-07-11T07:29:31;95927.09;;;29.49;28.59
43450;BME280;29041;42.266;23.110;2022-07-11T07:32:19;95929.00;;;29.39;28.03
43450;BME280;29041;42.266;23.110;2022-07-11T07:35:08;95933.53;;;29.33;28.81
43450;BME280;29041;42.266;23.110;2022-07-11T07:37:55;95935.78;;;28.07;29.10
43450;BME280;29041;42.266;23.110;2022-07-11T07:40:42;95935.72;;;28.70;28.96
43450;BME280;29041;42.266;23.110;2022-07-11T07:43:29;95919.44;;;29.79;26.88
43450;BME280;29041;42.266;23.110;2022-07-11T07:46:17;95919.78;;;30.29;26.51
43450;BME280;29041;42.266;23.110;2022-07-11T07:49:04;95917.44;;;29.79;27.16
43450;BME280;29041;42.266;23.110;2022-07-11T07:51:52;95913.19;;;30.13;26.46
43450;BME280;29041;42.266;23.110;2022-07-11T07:54:39;95922.63;;;30.38;25.03
43450;BME280;29041;42.266;23.110;2022-07-11T07:57:27;95933.09;;;28.79;26.24
43450;BME280;29041;42.266;23.110;2022-07-11T08:00:14;95924.72;;;29.99;22.89
43450;BME280;29041;42.266;23.110;2022-07-11T08:03:19;95928.47;;;27.14;22.56
43450;BME280;29041;42.266;23.110;2022-07-11T08:06:06;95920.59;;;29.55;20.32
43450;BME280;29041;42.266;23.110;2022-07-11T08:08:54;95918.22;;;32.54;18.65
43450;BME280;29041;42.266;23.110;2022-07-11T08:11:42;95912.38;;;30.13;19.17
43450;BME280;29041;42.266;23.110;2022-07-11T08:14:29;95910.78;;;34.22;17.12
43450;BME280;29041;42.266;23.110;2022-07-11T08:17:17;95904.72;;;31.78;18.22
43450;BME280;29041;42.266;23.110;2022-07-11T08:20:05;95912.81;;;34.76;16.12
43450;BME280;29041;42.266;23.110;2022-07-11T08:22:52;95926.31;;;34.14;17.53
43450;BME280;29041;42.266;23.110;2022-07-11T08:25:40;95916.91;;;33.01;18.68
43450;BME280;29041;42.266;23.110;2022-07-11T08:28:27;95920.00;;;33.03;17.73
43450;BME280;29041;42.266;23.110;2022-07-11T08:31:15;95917.00;;;35.61;16.57
43450;BME280;29041;42.266;23.110;2022-07-11T08:34:02;95911.34;;;34.66;16.58
43450;BME280;29041;42.266;23.110;2022-07-11T08:36:49;95918.19;;;32.91;18.25
43450;BME280;29041;42.266;23.110;2022-07-11T08:39:37;95909.88;;;32.82;18.16
43450;BME280;29041;42.266;23.110;2022-07-11T08:42:28;95907.59;;;32.24;18.45
43450;BME280;29041;42.266;23.110;2022-07-11T08:45:17;95890.13;;;32.05;19.10
43450;BME280;29041;42.266;23.110;2022-07-11T08:48:05;95905.22;;;32.88;17.53
43450;BME280;29041;42.266;23.110;2022-07-11T08:50:55;95898.63;;;32.48;17.79
43450;BME280;29041;42.266;23.110;2022-07-11T08:53:43;95887.00;;;34.12;16.83
43450;BME280;29041;42.266;23.110;2022-07-11T08:56:31;95887.56;;;34.01;17.09
43450;BME280;29041;42.266;23.110;2022-07-11T08:59:22;95893.63;;;31.78;18.53
43450;BME280;29041;42.266;23.110;2022-07-11T09:02:11;95884.00;;;33.09;17.80
43450;BME280;29041;42.266;23.110;2022-07-11T09:04:59;95890.44;;;32.17;18.19
43450;BME280;29041;42.266;23.110;2022-07-11T09:07:49;95894.06;;;35.06;16.46
43450;BME280;29041;42.266;23.110;2022-07-11T09:10:38;95883.25;;;34.39;17.12
43450;BME280;29041;42.266;23.110;2022-07-11T09:13:27;95884.69;;;33.28;17.76
43450;BME280;29041;42.266;23.110;2022-07-11T09:16:18;95872.34;;;31.75;18.98
43450;BME280;29041;42.266;23.110;2022-07-11T09:19:20;95879.81;;;30.83;19.35
43450;BME280;29041;42.266;23.110;2022-07-11T09:22:09;95877.16;;;32.49;18.92
43450;BME280;29041;42.266;23.110;2022-07-11T09:25:13;95884.88;;;31.98;17.79
43450;BME280;29041;42.266;23.110;2022-07-11T09:28:07;95880.84;;;32.55;18.12
43450;BME280;29041;42.266;23.110;2022-07-11T09:30:55;95878.47;;;31.10;20.68
43450;BME280;29041;42.266;23.110;2022-07-11T09:34:03;95880.38;;;31.32;19.11
43450;BME280;29041;42.266;23.110;2022-07-11T09:36:52;95882.78;;;30.58;20.80
43450;BME280;29041;42.266;23.110;2022-07-11T09:39:40;95878.38;;;31.23;19.96
43450;BME280;29041;42.266;23.110;2022-07-11T09:42:45;95881.00;;;31.05;19.91
43450;BME280;29041;42.266;23.110;2022-07-11T09:45:34;95873.25;;;31.12;19.19
43450;BME280;29041;42.266;23.110;2022-07-11T09:48:21;95879.06;;;30.83;19.97
43450;BME280;29041;42.266;23.110;2022-07-11T09:51:19;95876.47;;;30.89;19.72
43450;BME280;29041;42.266;23.110;2022-07-11T09:54:08;95881.00;;;29.94;20.93
43450;BME280;29041;42.266;23.110;2022-07-11T09:56:55;95878.66;;;31.16;20.74
43450;BME280;29041;42.266;23.110;2022-07-11T09:59:42;95881.31;;;29.48;20.98
43450;BME280;29041;42.266;23.110;2022-07-11T10:02:32;95885.75;;;30.95;19.72
43450;BME280;29041;42.266;23.110;2022-07-11T10:05:21;95873.09;;;30.18;20.78
43450;BME280;29041;42.266;23.110;2022-07-11T10:08:09;95877.31;;;30.32;20.72
43450;BME280;29041;42.266;23.110;2022-07-11T10:10:58;95872.78;;;30.92;20.18
43450;BME280;29041;42.266;23.110;2022-07-11T10:13:49;95860.41;;;30.52;20.57
43450;BME280;29041;42.266;23.110;2022-07-11T10:16:49;95869.59;;;30.93;21.12
43450;BME280;29041;42.266;23.110;2022-07-11T10:19:42;95873.16;;;29.79;21.15
43450;BME280;29041;42.266;23.110;2022-07-11T10:22:50;95880.25;;;29.80;21.55
43450;BME280;29041;42.266;23.110;2022-07-11T10:25:42;95883.59;;;30.67;21.79
43450;BME280;29041;42.266;23.110;2022-07-11T10:28:36;95884.06;;;31.20;21.34
43450;BME280;29041;42.266;23.110;2022-07-11T10:31:25;95878.50;;;31.70;20.08
43450;BME280;29041;42.266;23.110;2022-07-11T10:34:14;95885.28;;;30.96;20.67
43450;BME280;29041;42.266;23.110;2022-07-11T10:37:05;95892.38;;;30.97;20.99
43450;BME280;29041;42.266;23.110;2022-07-11T10:39:57;95870.16;;;29.99;21.55
43450;BME280;29041;42.266;23.110;2022-07-11T10:42:46;95883.91;;;30.25;21.58
43450;BME280;29041;42.266;23.110;2022-07-11T10:45:49;95888.56;;;30.50;21.73
43450;BME280;29041;42.266;23.110;2022-07-11T10:48:58;95881.28;;;29.60;21.63
43450;BME280;29041;42.266;23.110;2022-07-11T10:51:51;95883.41;;;29.43;21.76
43450;BME280;29041;42.266;23.110;2022-07-11T10:54:53;95878.19;;;30.95;20.89
43450;BME280;29041;42.266;23.110;2022-07-11T10:57:59;95890.13;;;29.17;22.71
43450;BME280;29041;42.266;23.110;2022-07-11T11:01:07;95883.31;;;30.30;22.66
43450;BME280;29041;42.266;23.110;2022-07-11T11:07:38;95879.78;;;30.30;21.97
43450;BME280;29041;42.266;23.110;2022-07-11T11:10:50;95890.28;;;30.57;21.27
43450;BME280;29041;42.266;23.110;2022-07-11T11:13:42;95879.97;;;29.52;23.17
43450;BME280;29041;42.266;23.110;2022-07-11T11:16:30;95876.44;;;30.79;21.54
43450;BME280;29041;42.266;23.110;2022-07-11T11:22:37;95887.66;;;30.53;20.80
43450;BME280;29041;42.266;23.110;2022-07-11T11:25:25;95884.88;;;30.31;21.64
43450;BME280;29041;42.266;23.110;2022-07-11T11:28:19;95887.66;;;31.07;21.65
43450;BME280;29041;42.266;23.110;2022-07-11T11:31:08;95873.25;;;30.01;22.50
43450;BME280;29041;42.266;23.110;2022-07-11T11:33:56;95875.31;;;29.49;23.95
43450;BME280;29041;42.266;23.110;2022-07-11T11:36:44;95881.00;;;31.27;21.59
43450;BME280;29041;42.266;23.110;2022-07-11T11:39:33;95876.81;;;29.89;22.05
43450;BME280;29041;42.266;23.110;2022-07-11T11:42:21;95870.84;;;30.70;21.45
43450;BME280;29041;42.266;23.110;2022-07-11T11:45:09;95866.44;;;30.15;21.97
43450;BME280;29041;42.266;23.110;2022-07-11T11:47:59;95864.59;;;31.10;22.03
43450;BME280;29041;42.266;23.110;2022-07-11T11:50:46;95883.06;;;30.37;21.88
43450;BME280;29041;42.266;23.110;2022-07-11T11:53:35;95887.78;;;29.93;21.93
43450;BME280;29041;42.266;23.110;2022-07-11T11:56:24;95873.72;;;30.44;22.00
43450;BME280;29041;42.266;23.110;2022-07-11T11:59:14;95877.38;;;31.48;21.06
43450;BME280;29041;42.266;23.110;2022-07-11T12:02:01;95876.50;;;30.44;20.99
43450;BME280;29041;42.266;23.110;2022-07-11T12:04:50;95862.72;;;30.76;21.59
43450;BME280;29041;42.266;23.110;2022-07-11T12:07:37;95864.09;;;31.53;20.75
43450;BME280;29041;42.266;23.110;2022-07-11T12:10:24;95876.56;;;32.45;20.05
43450;BME280;29041;42.266;23.110;2022-07-11T12:13:11;95861.31;;;33.01;20.01
43450;BME280;29041;42.266;23.110;2022-07-11T12:15:59;95872.22;;;31.28;21.45
43450;BME280;29041;42.266;23.110;2022-07-11T12:19:03;95873.59;;;32.02;20.75
43450;BME280;29041;42.266;23.110;2022-07-11T12:21:54;95873.59;;;31.83;19.98
43450;BME280;29041;42.266;23.110;2022-07-11T12:24:46;95885.94;;;31.00;20.57
43450;BME280;29041;42.266;23.110;2022-07-11T12:27:33;95866.00;;;31.15;20.68
43450;BME280;29041;42.266;23.110;2022-07-11T12:30:22;95871.28;;;31.00;20.63
43450;BME280;29041;42.266;23.110;2022-07-11T12:33:11;95872.16;;;30.21;21.06
43450;BME280;29041;42.266;23.110;2022-07-11T12:36:00;95860.84;;;31.36;20.84
43450;BME280;29041;42.266;23.110;2022-07-11T12:38:49;95859.59;;;30.96;20.24
43450;BME280;29041;42.266;23.110;2022-07-11T12:41:37;95866.88;;;30.14;21.12
43450;BME280;29041;42.266;23.110;2022-07-11T12:44:25;95870.22;;;29.73;21.49
43450;BME280;29041;42.266;23.110;2022-07-11T12:47:29;95863.38;;;31.21;20.53
43450;BME280;29041;42.266;23.110;2022-07-11T12:50:18;95865.59;;;31.26;20.76
43450;BME280;29041;42.266;23.110;2022-07-11T12:53:05;95863.56;;;31.76;19.83
43450;BME280;29041;42.266;23.110;2022-07-11T12:55:54;95862.78;;;31.16;20.20
43450;BME280;29041;42.266;23.110;2022-07-11T12:58:42;95864.25;;;30.32;20.31
43450;BME280;29041;42.266;23.110;2022-07-11T13:01:30;95856.44;;;30.84;20.20
43450;BME280;29041;42.266;23.110;2022-07-11T13:04:28;95858.94;;;30.92;19.89
43450;BME280;29041;42.266;23.110;2022-07-11T13:07:22;95853.06;;;30.58;20.52
43450;BME280;29041;42.266;23.110;2022-07-11T13:10:28;95865.44;;;31.29;19.68
43450;BME280;29041;42.266;23.110;2022-07-11T13:13:37;95847.44;;;31.02;20.24
43450;BME280;29041;42.266;23.110;2022-07-11T13:16:25;95858.94;;;31.73;20.06
43450;BME280;29041;42.266;23.110;2022-07-11T13:19:12;95826.63;;;30.66;21.34
43450;BME280;29041;42.266;23.110;2022-07-11T13:21:59;95830.69;;;29.73;22.94
43450;BME280;29041;42.266;23.110;2022-07-11T13:24:50;95854.06;;;31.37;21.38
43450;BME280;29041;42.266;23.110;2022-07-11T13:27:37;95858.34;;;31.78;20.47
43450;BME280;29041;42.266;23.110;2022-07-11T13:30:26;95856.31;;;31.70;20.63
43450;BME280;29041;42.266;23.110;2022-07-11T13:33:16;95853.41;;;31.32;19.87
43450;BME280;29041;42.266;23.110;2022-07-11T13:36:03;95842.59;;;31.16;20.42
43450;BME280;29041;42.266;23.110;2022-07-11T13:38:50;95859.63;;;30.29;21.67
43450;BME280;29041;42.266;23.110;2022-07-11T13:41:38;95836.41;;;30.80;21.13
43450;BME280;29041;42.266;23.110;2022-07-11T13:44:25;95863.09;;;32.80;19.31
43450;BME280;29041;42.266;23.110;2022-07-11T13:47:14;95856.78;;;31.96;19.80
43450;BME280;29041;42.266;23.110;2022-07-11T13:50:02;95843.41;;;31.26;20.13
43450;BME280;29041;42.266;23.110;2022-07-11T13:52:49;95843.44;;;31.44;20.02
43450;BME280;29041;42.266;23.110;2022-07-11T13:55:36;95848.31;;;32.18;19.71
43450;BME280;29041;42.266;23.110;2022-07-11T13:58:24;95847.13;;;31.51;19.76
43450;BME280;29041;42.266;23.110;2022-07-11T14:01:11;95850.34;;;30.99;20.69
43450;BME280;29041;42.266;23.110;2022-07-11T14:03:59;95835.34;;;30.87;20.36
43450;BME280;29041;42.266;23.110;2022-07-11T14:06:46;95849.84;;;30.91;20.90
43450;BME280;29041;42.266;23.110;2022-07-11T14:09:33;95843.19;;;30.79;20.52
43450;BME280;29041;42.266;23.110;2022-07-11T14:12:21;95839.03;;;30.52;20.35
43450;BME280;29041;42.266;23.110;2022-07-11T14:15:09;95833.91;;;31.55;19.64
43450;BME280;29041;42.266;23.110;2022-07-11T14:17:56;95844.94;;;31.36;19.63
43450;BME280;29041;42.266;23.110;2022-07-11T14:20:45;95835.72;;;30.98;20.69
43450;BME280;29041;42.266;23.110;2022-07-11T14:23:33;95844.31;;;30.91;20.90
43450;BME280;29041;42.266;23.110;2022-07-11T14:26:20;95842.34;;;30.47;20.71
43450;BME280;29041;42.266;23.110;2022-07-11T14:29:07;95841.13;;;30.70;20.73
43450;BME280;29041;42.266;23.110;2022-07-11T14:31:55;95844.59;;;30.17;20.66
43450;BME280;29041;42.266;23.110;2022-07-11T14:34:43;95854.13;;;30.16;21.38
43450;BME280;29041;42.266;23.110;2022-07-11T14:37:32;95849.56;;;29.13;22.33
43450;BME280;29041;42.266;23.110;2022-07-11T14:40:19;95848.09;;;30.31;21.40
43450;BME280;29041;42.266;23.110;2022-07-11T14:43:08;95850.72;;;30.12;21.11
43450;BME280;29041;42.266;23.110;2022-07-11T14:45:56;95837.22;;;31.81;19.65
43450;BME280;29041;42.266;23.110;2022-07-11T14:48:43;95847.03;;;31.13;20.37
43450;BME280;29041;42.266;23.110;2022-07-11T14:51:31;95848.16;;;30.62;21.02